Arsos M — V7IR2 — position and weather

sailwx.info

Track history (hours):
 
Tides and Currents Weather Stations Pressure Air Temp Water Temp Dewpoint Dewpoint Depression Visibility Wind Speed Wind Dir Waves Ship Positions

Arsos M

Last reported at 2017-Sep-21 17:57 UTC. Time now 2017-Sep-25 19:05 UTC.
Position N 34°30' E 033°17'.

Length 180 m; draft 7.4 m.

Type: Ship. MMSI: 538007316.

Date/timePositionNaut miles runAvg speedWind from/ knotsBaromVisibWave heightAir tempDewpointWater temp
2017-Sep-21 17:57N 34°30' E 033°17'5 2.6
2017-Sep-21 16:10N 34°33' E 033°21'1 3.0
2017-Sep-21 15:51N 34°34' E 033°22'3 5.4
2017-Sep-21 15:21N 34°36' E 033°24'0 0.2
2017-Sep-21 14:35N 34°36' E 033°24'0 1.2
2017-Sep-21 14:25N 34°36' E 033°23'10 0.6
2017-Sep-20 20:24N 34°29' E 033°15'0 0.9
2017-Sep-20 20:00N 34°29' E 033°15'1 1.2
2017-Sep-20 19:31N 34°28' E 033°14'1 1.2
2017-Sep-20 19:01N 34°28' E 033°14'20 7.2
2017-Sep-20 16:12N 34°23' E 033°38'2 1.5
2017-Sep-20 14:48N 34°24' E 033°36'  
2017-Sep-15 15:19N 34°11' E 033°56'0 1.1
2017-Sep-15 15:00N 34°11' E 033°56'1 1.0
2017-Sep-15 14:27N 34°11' E 033°55'1 1.1
2017-Sep-15 14:00N 34°11' E 033°55'2 1.2
2017-Sep-15 12:20N 34°10' E 033°52'1 1.3
2017-Sep-15 11:55N 34°10' E 033°52'1 1.3
2017-Sep-15 11:16N 34°09' E 033°51'5 0.9
2017-Sep-15 05:24N 34°06' E 033°46'0 0.6
2017-Sep-15 04:57N 34°06' E 033°46'0 0.5
2017-Sep-15 04:30N 34°05' E 033°46'0 0.5
2017-Sep-15 04:00N 34°05' E 033°46'0 0.4
2017-Sep-15 03:29N 34°05' E 033°45'0 0.4
2017-Sep-15 03:00N 34°05' E 033°45'0 0.3
2017-Sep-15 02:28N 34°05' E 033°45'5 0.6
2017-Sep-14 19:23N 34°05' E 033°40'0 1.1
2017-Sep-14 18:58N 34°05' E 033°39'1 1.2
2017-Sep-14 18:29N 34°06' E 033°38'1 1.2
2017-Sep-14 17:51N 34°06' E 033°37'1 1.4
2017-Sep-14 17:00N 34°06' E 033°36'1 1.4
2017-Sep-14 16:30N 34°06' E 033°35'1 1.4
2017-Sep-14 16:00N 34°06' E 033°34'1 1.4
2017-Sep-14 15:28N 34°06' E 033°34'1 1.3
2017-Sep-14 14:56N 34°06' E 033°33'1 1.3
2017-Sep-14 14:29N 34°06' E 033°32'3 1.2
2017-Sep-14 12:22N 34°06' E 033°29'0 1.0
2017-Sep-14 12:01N 34°06' E 033°29'0 1.0
2017-Sep-14 11:30N 34°06' E 033°28'0 0.8
2017-Sep-14 11:00N 34°06' E 033°28'1 0.8
2017-Sep-14 10:21N 34°05' E 033°27'9 5.8
2017-Sep-14 08:52N 33°58' E 033°33'410.8
2017-Sep-14 08:30N 33°55' E 033°35'510.7
2017-Sep-14 08:00N 33°50' E 033°39'510.4
2017-Sep-14 07:30N 33°46' E 033°42'510.1
2017-Sep-14 07:00N 33°41' E 033°44'510.1
2017-Sep-14 06:30N 33°36' E 033°46'510.1
2017-Sep-14 06:00N 33°32' E 033°49'510.2
2017-Sep-14 05:30N 33°27' E 033°51'510.1
2017-Sep-14 05:00N 33°23' E 033°54'510.1
2017-Sep-14 04:30N 33°18' E 033°56'4 8.4
2017-Sep-14 04:00N 33°14' E 033°58'0 0.5
2017-Sep-14 03:30N 33°14' E 033°58'1 1.4
2017-Sep-14 02:48N 33°15' E 033°58'0 1.5
2017-Sep-14 02:30N 33°16' E 033°58'1 1.6
2017-Sep-14 02:00N 33°16' E 033°58'1 1.5
2017-Sep-14 01:16N 33°17' E 033°57'1 1.7
2017-Sep-14 00:51N 33°18' E 033°57'1 1.6
2017-Sep-14 00:30N 33°19' E 033°57'1 1.7
2017-Sep-14 00:00N 33°19' E 033°57'1 1.6
2017-Sep-13 23:30N 33°20' E 033°56'1 1.7
2017-Sep-13 23:00N 33°21' E 033°56'1 1.7
2017-Sep-13 22:30N 33°22' E 033°56'1 1.7
2017-Sep-13 22:00N 33°23' E 033°56'1 1.4
2017-Sep-13 21:30N 33°23' E 033°56'1 1.2
2017-Sep-13 20:53N 33°24' E 033°55'0 1.2
2017-Sep-13 20:30N 33°25' E 033°55'1 1.2
2017-Sep-13 20:00N 33°25' E 033°55'1 1.1
2017-Sep-13 19:30N 33°26' E 033°55'1 1.1
2017-Sep-13 19:00N 33°26' E 033°55'1 1.1
2017-Sep-13 18:30N 33°27' E 033°55'1 1.1
2017-Sep-13 18:00N 33°27' E 033°54'1 1.1
2017-Sep-13 17:30N 33°28' E 033°54'1 1.1
2017-Sep-13 17:00N 33°28' E 033°54'1 1.1
2017-Sep-13 16:30N 33°29' E 033°54'1 1.2
2017-Sep-13 15:59N 33°30' E 033°54'1 1.2
2017-Sep-13 15:30N 33°30' E 033°54'1 1.2
2017-Sep-13 15:00N 33°31' E 033°54'1 1.2
2017-Sep-13 14:30N 33°31' E 033°55'1 1.2
2017-Sep-13 14:00N 33°32' E 033°55'1 1.2
2017-Sep-13 13:30N 33°32' E 033°55'1 1.1
2017-Sep-13 13:00N 33°33' E 033°55'1 1.2
2017-Sep-13 12:30N 33°34' E 033°55'1 1.2
2017-Sep-13 12:00N 33°34' E 033°55'1 1.3
2017-Sep-13 11:27N 33°35' E 033°55'1 1.2
2017-Sep-13 11:00N 33°35' E 033°55'1 1.3
2017-Sep-13 10:30N 33°36' E 033°55'1 1.2
2017-Sep-13 10:00N 33°37' E 033°54'1 1.3
2017-Sep-13 09:30N 33°37' E 033°54'1 1.3
2017-Sep-13 09:00N 33°38' E 033°54'1 1.2
2017-Sep-13 08:30N 33°39' E 033°54'1 1.2
2017-Sep-13 08:00N 33°39' E 033°54'1 1.2
2017-Sep-13 07:30N 33°40' E 033°53'2 1.1
2017-Sep-13 05:42N 33°41' E 033°52'0 1.0
2017-Sep-13 05:24N 33°42' E 033°52'1 0.8
2017-Sep-13 04:16N 33°42' E 033°52'0 0.8
2017-Sep-13 04:00N 33°43' E 033°51'0 0.7
2017-Sep-13 03:30N 33°43' E 033°51'0 0.7
2017-Sep-13 02:53N 33°43' E 033°51'0 0.6
2017-Sep-13 02:30N 33°43' E 033°51'0 0.6
2017-Sep-13 02:00N 33°44' E 033°51'0 0.5
2017-Sep-13 01:30N 33°44' E 033°50'0 0.6
2017-Sep-13 00:56N 33°44' E 033°50'0 0.6
2017-Sep-13 00:30N 33°45' E 033°50'0 0.6
2017-Sep-13 00:00N 33°45' E 033°50'0 0.7
2017-Sep-12 23:29N 33°45' E 033°50'0 0.7
2017-Sep-12 23:00N 33°46' E 033°50'2 0.8
2017-Sep-12 20:27N 33°48' E 033°50'1 0.9
2017-Sep-12 19:38N 33°48' E 033°50'0 0.9
2017-Sep-12 19:18N 33°49' E 033°50'0 1.0
2017-Sep-12 18:53N 33°49' E 033°50'0 1.1
2017-Sep-12 18:30N 33°49' E 033°50'1 1.1
2017-Sep-12 17:59N 33°50' E 033°50'1 1.1
2017-Sep-12 17:30N 33°50' E 033°50'1 1.0
2017-Sep-12 17:00N 33°51' E 033°49'1 1.0
2017-Sep-12 16:30N 33°51' E 033°49'1 1.1
2017-Sep-12 16:00N 33°52' E 033°49'1 1.1
2017-Sep-12 15:18N 33°53' E 033°49'0 1.0
2017-Sep-12 15:00N 33°53' E 033°48'1 1.0
2017-Sep-12 14:30N 33°53' E 033°48'1 1.0
2017-Sep-12 13:54N 33°54' E 033°48'0 1.0
2017-Sep-12 13:30N 33°54' E 033°48'1 1.0
2017-Sep-12 13:00N 33°55' E 033°47'1 1.0
2017-Sep-12 12:28N 33°55' E 033°47'0 0.9
2017-Sep-12 11:59N 33°55' E 033°46'0 0.9
2017-Sep-12 11:30N 33°55' E 033°46'0 0.9
2017-Sep-12 11:00N 33°56' E 033°45'0 0.9
2017-Sep-12 10:30N 33°56' E 033°45'0 0.9
2017-Sep-12 10:00N 33°56' E 033°44'0 0.9
2017-Sep-12 09:30N 33°56' E 033°44'0 0.9
2017-Sep-12 09:00N 33°56' E 033°43'0 0.8
2017-Sep-12 08:30N 33°56' E 033°43'0 0.8
2017-Sep-12 08:00N 33°56' E 033°42'0 0.7
2017-Sep-12 07:30N 33°56' E 033°42'0 0.7
2017-Sep-12 07:00N 33°56' E 033°41'0 0.7
2017-Sep-12 06:30N 33°56' E 033°41'1 0.7
2017-Sep-12 05:25N 33°56' E 033°40'0 0.8
2017-Sep-12 04:59N 33°56' E 033°39'2 0.8
2017-Sep-12 02:13N 33°57' E 033°37'0 0.8
2017-Sep-12 01:56N 33°58' E 033°37'0 0.9
2017-Sep-12 01:24N 33°58' E 033°37'0 0.8
2017-Sep-12 00:59N 33°58' E 033°36'0 0.9
2017-Sep-12 00:30N 33°58' E 033°36'0 0.9
2017-Sep-12 00:00N 33°59' E 033°36'0 1.0
2017-Sep-11 23:30N 33°59' E 033°35'  
Track history (hours):
 
Tides and Currents Weather Stations Pressure Air Temp Water Temp Dewpoint Dewpoint Depression Visibility Wind Speed Wind Dir Waves Ship Positions

Arsos M

Last reported at 2017-Sep-21 17:57 UTC. Time now 2017-Sep-25 19:05 UTC.
Position N 34°30' E 033°17'.

Length 180 m; draft 7.4 m.

Type: Ship. MMSI: 538007316.

Date/timePositionNaut miles runAvg speedWind from/ knotsBaromVisibWave heightAir tempDewpointWater temp
2017-Sep-21 17:57N 34°30' E 033°17'5 2.6
2017-Sep-21 16:10N 34°33' E 033°21'1 3.0
2017-Sep-21 15:51N 34°34' E 033°22'3 5.4
2017-Sep-21 15:21N 34°36' E 033°24'0 0.2
2017-Sep-21 14:35N 34°36' E 033°24'0 1.2
2017-Sep-21 14:25N 34°36' E 033°23'10 0.6
2017-Sep-20 20:24N 34°29' E 033°15'0 0.9
2017-Sep-20 20:00N 34°29' E 033°15'1 1.2
2017-Sep-20 19:31N 34°28' E 033°14'1 1.2
2017-Sep-20 19:01N 34°28' E 033°14'20 7.2
2017-Sep-20 16:12N 34°23' E 033°38'2 1.5
2017-Sep-20 14:48N 34°24' E 033°36'  
2017-Sep-15 15:19N 34°11' E 033°56'0 1.1
2017-Sep-15 15:00N 34°11' E 033°56'1 1.0
2017-Sep-15 14:27N 34°11' E 033°55'1 1.1
2017-Sep-15 14:00N 34°11' E 033°55'2 1.2
2017-Sep-15 12:20N 34°10' E 033°52'1 1.3
2017-Sep-15 11:55N 34°10' E 033°52'1 1.3
2017-Sep-15 11:16N 34°09' E 033°51'5 0.9
2017-Sep-15 05:24N 34°06' E 033°46'0 0.6
2017-Sep-15 04:57N 34°06' E 033°46'0 0.5
2017-Sep-15 04:30N 34°05' E 033°46'0 0.5
2017-Sep-15 04:00N 34°05' E 033°46'0 0.4
2017-Sep-15 03:29N 34°05' E 033°45'0 0.4
2017-Sep-15 03:00N 34°05' E 033°45'0 0.3
2017-Sep-15 02:28N 34°05' E 033°45'5 0.6
2017-Sep-14 19:23N 34°05' E 033°40'0 1.1
2017-Sep-14 18:58N 34°05' E 033°39'1 1.2
2017-Sep-14 18:29N 34°06' E 033°38'1 1.2
2017-Sep-14 17:51N 34°06' E 033°37'1 1.4
2017-Sep-14 17:00N 34°06' E 033°36'1 1.4
2017-Sep-14 16:30N 34°06' E 033°35'1 1.4
2017-Sep-14 16:00N 34°06' E 033°34'1 1.4
2017-Sep-14 15:28N 34°06' E 033°34'1 1.3
2017-Sep-14 14:56N 34°06' E 033°33'1 1.3
2017-Sep-14 14:29N 34°06' E 033°32'3 1.2
2017-Sep-14 12:22N 34°06' E 033°29'0 1.0
2017-Sep-14 12:01N 34°06' E 033°29'0 1.0
2017-Sep-14 11:30N 34°06' E 033°28'0 0.8
2017-Sep-14 11:00N 34°06' E 033°28'1 0.8
2017-Sep-14 10:21N 34°05' E 033°27'9 5.8
2017-Sep-14 08:52N 33°58' E 033°33'410.8
2017-Sep-14 08:30N 33°55' E 033°35'510.7
2017-Sep-14 08:00N 33°50' E 033°39'510.4
2017-Sep-14 07:30N 33°46' E 033°42'510.1
2017-Sep-14 07:00N 33°41' E 033°44'510.1
2017-Sep-14 06:30N 33°36' E 033°46'510.1
2017-Sep-14 06:00N 33°32' E 033°49'510.2
2017-Sep-14 05:30N 33°27' E 033°51'510.1
2017-Sep-14 05:00N 33°23' E 033°54'510.1
2017-Sep-14 04:30N 33°18' E 033°56'4 8.4
2017-Sep-14 04:00N 33°14' E 033°58'0 0.5
2017-Sep-14 03:30N 33°14' E 033°58'1 1.4
2017-Sep-14 02:48N 33°15' E 033°58'0 1.5
2017-Sep-14 02:30N 33°16' E 033°58'1 1.6
2017-Sep-14 02:00N 33°16' E 033°58'1 1.5
2017-Sep-14 01:16N 33°17' E 033°57'1 1.7
2017-Sep-14 00:51N 33°18' E 033°57'1 1.6
2017-Sep-14 00:30N 33°19' E 033°57'1 1.7
2017-Sep-14 00:00N 33°19' E 033°57'1 1.6
2017-Sep-13 23:30N 33°20' E 033°56'1 1.7
2017-Sep-13 23:00N 33°21' E 033°56'1 1.7
2017-Sep-13 22:30N 33°22' E 033°56'1 1.7
2017-Sep-13 22:00N 33°23' E 033°56'1 1.4
2017-Sep-13 21:30N 33°23' E 033°56'1 1.2
2017-Sep-13 20:53N 33°24' E 033°55'0 1.2
2017-Sep-13 20:30N 33°25' E 033°55'1 1.2
2017-Sep-13 20:00N 33°25' E 033°55'1 1.1
2017-Sep-13 19:30N 33°26' E 033°55'1 1.1
2017-Sep-13 19:00N 33°26' E 033°55'1 1.1
2017-Sep-13 18:30N 33°27' E 033°55'1 1.1
2017-Sep-13 18:00N 33°27' E 033°54'1 1.1
2017-Sep-13 17:30N 33°28' E 033°54'1 1.1
2017-Sep-13 17:00N 33°28' E 033°54'1 1.1
2017-Sep-13 16:30N 33°29' E 033°54'1 1.2
2017-Sep-13 15:59N 33°30' E 033°54'1 1.2
2017-Sep-13 15:30N 33°30' E 033°54'1 1.2
2017-Sep-13 15:00N 33°31' E 033°54'1 1.2
2017-Sep-13 14:30N 33°31' E 033°55'1 1.2
2017-Sep-13 14:00N 33°32' E 033°55'1 1.2
2017-Sep-13 13:30N 33°32' E 033°55'1 1.1
2017-Sep-13 13:00N 33°33' E 033°55'1 1.2
2017-Sep-13 12:30N 33°34' E 033°55'1 1.2
2017-Sep-13 12:00N 33°34' E 033°55'1 1.3
2017-Sep-13 11:27N 33°35' E 033°55'1 1.2
2017-Sep-13 11:00N 33°35' E 033°55'1 1.3
2017-Sep-13 10:30N 33°36' E 033°55'1 1.2
2017-Sep-13 10:00N 33°37' E 033°54'1 1.3
2017-Sep-13 09:30N 33°37' E 033°54'1 1.3
2017-Sep-13 09:00N 33°38' E 033°54'1 1.2
2017-Sep-13 08:30N 33°39' E 033°54'1 1.2
2017-Sep-13 08:00N 33°39' E 033°54'1 1.2
2017-Sep-13 07:30N 33°40' E 033°53'2 1.1
2017-Sep-13 05:42N 33°41' E 033°52'0 1.0
2017-Sep-13 05:24N 33°42' E 033°52'1 0.8
2017-Sep-13 04:16N 33°42' E 033°52'0 0.8
2017-Sep-13 04:00N 33°43' E 033°51'0 0.7
2017-Sep-13 03:30N 33°43' E 033°51'0 0.7
2017-Sep-13 02:53N 33°43' E 033°51'0 0.6
2017-Sep-13 02:30N 33°43' E 033°51'0 0.6
2017-Sep-13 02:00N 33°44' E 033°51'0 0.5
2017-Sep-13 01:30N 33°44' E 033°50'0 0.6
2017-Sep-13 00:56N 33°44' E 033°50'0 0.6
2017-Sep-13 00:30N 33°45' E 033°50'0 0.6
2017-Sep-13 00:00N 33°45' E 033°50'0 0.7
2017-Sep-12 23:29N 33°45' E 033°50'0 0.7
2017-Sep-12 23:00N 33°46' E 033°50'2 0.8
2017-Sep-12 20:27N 33°48' E 033°50'1 0.9
2017-Sep-12 19:38N 33°48' E 033°50'0 0.9
2017-Sep-12 19:18N 33°49' E 033°50'0 1.0
2017-Sep-12 18:53N 33°49' E 033°50'0 1.1
2017-Sep-12 18:30N 33°49' E 033°50'1 1.1
2017-Sep-12 17:59N 33°50' E 033°50'1 1.1
2017-Sep-12 17:30N 33°50' E 033°50'1 1.0
2017-Sep-12 17:00N 33°51' E 033°49'1 1.0
2017-Sep-12 16:30N 33°51' E 033°49'1 1.1
2017-Sep-12 16:00N 33°52' E 033°49'1 1.1
2017-Sep-12 15:18N 33°53' E 033°49'0 1.0
2017-Sep-12 15:00N 33°53' E 033°48'1 1.0
2017-Sep-12 14:30N 33°53' E 033°48'1 1.0
2017-Sep-12 13:54N 33°54' E 033°48'0 1.0
2017-Sep-12 13:30N 33°54' E 033°48'1 1.0
2017-Sep-12 13:00N 33°55' E 033°47'1 1.0
2017-Sep-12 12:28N 33°55' E 033°47'0 0.9
2017-Sep-12 11:59N 33°55' E 033°46'0 0.9
2017-Sep-12 11:30N 33°55' E 033°46'0 0.9
2017-Sep-12 11:00N 33°56' E 033°45'0 0.9
2017-Sep-12 10:30N 33°56' E 033°45'0 0.9
2017-Sep-12 10:00N 33°56' E 033°44'0 0.9
2017-Sep-12 09:30N 33°56' E 033°44'0 0.9
2017-Sep-12 09:00N 33°56' E 033°43'0 0.8
2017-Sep-12 08:30N 33°56' E 033°43'0 0.8
2017-Sep-12 08:00N 33°56' E 033°42'0 0.7
2017-Sep-12 07:30N 33°56' E 033°42'0 0.7
2017-Sep-12 07:00N 33°56' E 033°41'0 0.7
2017-Sep-12 06:30N 33°56' E 033°41'1 0.7
2017-Sep-12 05:25N 33°56' E 033°40'0 0.8
2017-Sep-12 04:59N 33°56' E 033°39'2 0.8
2017-Sep-12 02:13N 33°57' E 033°37'0 0.8
2017-Sep-12 01:56N 33°58' E 033°37'0 0.9
2017-Sep-12 01:24N 33°58' E 033°37'0 0.8
2017-Sep-12 00:59N 33°58' E 033°36'0 0.9
2017-Sep-12 00:30N 33°58' E 033°36'0 0.9
2017-Sep-12 00:00N 33°59' E 033°36'0 1.0
2017-Sep-11 23:30N 33°59' E 033°35'  

Dump ship's entire track history